createdAt,value
2022-08-03T00:01:00.293Z,4.25
2022-08-03T00:03:29.461Z,4.82
2022-08-03T00:06:04.052Z,4.30
2022-08-03T00:08:40.096Z,4.45
2022-08-03T00:11:07.207Z,4.32
2022-08-03T00:13:34.490Z,4.50
2022-08-03T00:16:04.321Z,4.55
2022-08-03T00:18:31.306Z,4.95
2022-08-03T00:20:58.309Z,4.40
2022-08-03T00:23:25.256Z,4.28
2022-08-03T00:25:52.458Z,4.97
2022-08-03T00:28:20.504Z,4.50
2022-08-03T00:30:50.244Z,4.38
2022-08-03T00:33:18.102Z,4.40
2022-08-03T00:35:47.263Z,3.85
2022-08-03T00:38:19.735Z,4.32
2022-08-03T00:40:49.612Z,4.07
2022-08-03T00:43:17.170Z,4.90
2022-08-03T00:45:44.666Z,5.18
2022-08-03T00:48:30.162Z,4.75
2022-08-03T00:51:00.293Z,4.65
2022-08-03T00:53:46.887Z,5.53
2022-08-03T00:56:18.100Z,4.70
2022-08-03T00:58:46.959Z,4.63
2022-08-03T01:01:15.341Z,4.90
2022-08-03T01:03:46.114Z,4.90
2022-08-03T01:06:34.103Z,5.97
2022-08-03T01:09:54.711Z,5.82
2022-08-03T01:12:57.954Z,5.10
2022-08-03T01:15:50.458Z,4.80
2022-08-03T01:19:00.411Z,5.00
2022-08-03T01:22:30.560Z,5.40
2022-08-03T01:25:17.383Z,4.78
2022-08-03T01:28:34.564Z,5.22
2022-08-03T01:31:10.360Z,5.63
2022-08-03T01:33:51.240Z,5.28
2022-08-03T01:36:32.677Z,4.88
2022-08-03T01:39:09.418Z,5.25
2022-08-03T01:41:49.422Z,6.15
2022-08-03T01:44:29.000Z,5.60
2022-08-03T01:47:03.418Z,5.05
2022-08-03T01:49:43.423Z,6.47
2022-08-03T01:52:17.236Z,5.68
2022-08-03T01:57:21.254Z,6.05
2022-08-03T01:59:53.974Z,5.78
2022-08-03T02:02:33.623Z,6.63
2022-08-03T02:05:10.669Z,5.13
2022-08-03T02:07:42.925Z,6.15
2022-08-03T02:10:23.065Z,6.15
2022-08-03T02:13:08.712Z,5.45
2022-08-03T02:15:39.122Z,5.18
2022-08-03T02:18:10.862Z,6.40
2022-08-03T02:20:42.504Z,6.10
2022-08-03T02:23:10.044Z,6.05
2022-08-03T02:25:48.348Z,6.20
2022-08-03T02:28:32.791Z,5.82
2022-08-03T02:31:11.657Z,5.53
2022-08-03T02:33:50.767Z,5.43
2022-08-03T02:36:27.173Z,5.63
2022-08-03T02:39:01.826Z,6.32
2022-08-03T02:41:41.110Z,6.22
2022-08-03T02:44:13.089Z,6.45
2022-08-03T02:46:46.830Z,6.25
2022-08-03T02:49:41.127Z,5.93
2022-08-03T02:52:16.028Z,6.18
2022-08-03T02:54:49.355Z,7.20
2022-08-03T02:57:19.459Z,6.38
2022-08-03T02:59:51.722Z,6.75
2022-08-03T03:02:21.039Z,6.95
2022-08-03T03:05:51.744Z,7.38
2022-08-03T03:07:51.228Z,7.28
2022-08-03T03:10:23.095Z,7.20
2022-08-03T03:13:00.899Z,7.03
2022-08-03T03:15:31.766Z,6.78
2022-08-03T03:18:01.668Z,7.55
2022-08-03T03:20:30.679Z,7.90
2022-08-03T03:23:01.792Z,7.18
2022-08-03T03:25:32.632Z,8.20
2022-08-03T03:28:02.637Z,7.90
2022-08-03T03:30:33.328Z,7.90
2022-08-03T03:33:03.378Z,8.05
2022-08-03T03:35:31.374Z,8.93
2022-08-03T03:38:06.577Z,8.32
2022-08-03T03:40:36.770Z,8.82
2022-08-03T03:43:12.418Z,8.25
2022-08-03T03:45:43.239Z,8.43
2022-08-03T03:48:10.717Z,8.07
2022-08-03T03:50:41.097Z,8.68
2022-08-03T03:53:14.657Z,8.77
2022-08-03T03:55:57.899Z,9.07
2022-08-03T04:03:12.969Z,8.60
2022-08-03T04:05:58.844Z,8.75
2022-08-03T04:08:44.814Z,9.30
2022-08-03T04:11:33.364Z,9.27
2022-08-03T04:14:30.530Z,8.98
2022-08-03T04:17:16.044Z,9.20
2022-08-03T04:19:55.250Z,8.90
2022-08-03T04:22:41.784Z,10.02
2022-08-03T04:25:20.303Z,10.65
2022-08-03T04:28:07.635Z,9.85
2022-08-03T04:30:50.999Z,9.20
2022-08-03T04:33:21.780Z,9.85
2022-08-03T04:36:03.834Z,10.10
2022-08-03T04:38:46.131Z,9.40
2022-08-03T04:41:17.157Z,10.02
2022-08-03T04:43:55.934Z,10.55
2022-08-03T04:46:38.664Z,9.57
2022-08-03T04:49:08.535Z,9.77
2022-08-03T04:51:40.600Z,10.32
2022-08-03T04:54:13.186Z,9.60
2022-08-03T04:56:42.253Z,9.38
2022-08-03T04:59:11.363Z,8.98
2022-08-03T05:01:41.481Z,8.68
2022-08-03T05:04:11.657Z,7.82
2022-08-03T05:06:48.078Z,9.02
2022-08-03T05:09:50.170Z,8.68
2022-08-03T05:12:08.446Z,8.32
2022-08-03T05:14:39.891Z,8.43
2022-08-03T05:17:08.725Z,7.82
2022-08-03T05:19:41.698Z,7.07
2022-08-03T05:22:09.756Z,7.90
2022-08-03T05:24:38.336Z,6.88
2022-08-03T05:27:06.216Z,7.45
2022-08-03T05:29:33.577Z,7.05
2022-08-03T05:32:07.778Z,7.30
2022-08-03T05:34:35.853Z,7.65
2022-08-03T05:37:02.791Z,7.30
2022-08-03T05:39:30.740Z,8.60
2022-08-03T05:41:58.135Z,7.35
2022-08-03T05:44:27.018Z,7.38
2022-08-03T05:46:57.003Z,6.65
2022-08-03T05:49:24.679Z,6.88
2022-08-03T05:51:59.998Z,7.03
2022-08-03T05:54:56.452Z,7.32
2022-08-03T05:57:27.158Z,6.45
2022-08-03T05:59:58.437Z,5.95
2022-08-03T06:02:28.057Z,6.63
2022-08-03T06:04:56.582Z,5.88
2022-08-03T06:07:24.549Z,6.03
2022-08-03T06:10:34.575Z,5.70
2022-08-03T06:12:41.686Z,5.65
2022-08-03T06:15:11.371Z,5.88
2022-08-03T06:17:50.283Z,5.82
2022-08-03T06:20:27.278Z,5.70
2022-08-03T06:23:00.274Z,5.35
2022-08-03T06:25:32.254Z,4.95
2022-08-03T06:28:01.002Z,5.00
2022-08-03T06:30:30.871Z,5.57
2022-08-03T06:32:58.531Z,4.78
2022-08-03T06:35:28.043Z,5.25
2022-08-03T06:37:55.968Z,5.40
2022-08-03T06:40:33.356Z,5.22
2022-08-03T06:43:04.282Z,5.13
2022-08-03T06:45:32.698Z,6.13
2022-08-03T06:48:13.862Z,5.10
2022-08-03T06:50:45.913Z,4.90
2022-08-03T06:53:21.251Z,4.38
2022-08-03T06:55:57.208Z,5.30
2022-08-03T06:58:27.173Z,4.72
2022-08-03T07:01:01.447Z,4.65
2022-08-03T07:03:37.084Z,4.68
2022-08-03T07:06:21.233Z,4.22
2022-08-03T07:08:54.468Z,4.57
2022-08-03T07:11:24.312Z,4.20
2022-08-03T07:13:53.538Z,4.15
2022-08-03T07:16:26.748Z,4.40
2022-08-03T07:18:58.305Z,4.18
2022-08-03T07:21:25.727Z,4.00
2022-08-03T07:23:53.471Z,3.75
2022-08-03T07:26:28.301Z,3.78
2022-08-03T07:29:03.456Z,4.05
2022-08-03T07:31:39.219Z,4.32
2022-08-03T07:34:29.171Z,4.00
2022-08-03T07:37:01.786Z,4.93
2022-08-03T07:39:35.608Z,4.05
2022-08-03T07:42:28.113Z,4.00
2022-08-03T07:44:57.185Z,4.10
2022-08-03T07:47:35.289Z,3.05
2022-08-03T07:50:06.309Z,2.67
2022-08-03T07:52:48.078Z,3.25
2022-08-03T07:55:17.087Z,2.90
2022-08-03T07:57:44.587Z,3.00
2022-08-03T08:00:20.014Z,3.13
2022-08-03T08:02:47.246Z,2.55
2022-08-03T08:05:14.371Z,2.58
2022-08-03T08:07:42.163Z,2.55
2022-08-03T08:10:10.664Z,3.00
2022-08-03T08:12:40.254Z,2.67
2022-08-03T08:15:09.172Z,2.80
2022-08-03T08:17:49.381Z,2.90
2022-08-03T08:20:27.917Z,2.65
2022-08-03T08:23:01.001Z,2.47
2022-08-03T08:25:31.443Z,2.60
2022-08-03T08:28:30.527Z,2.40
2022-08-03T08:30:50.929Z,2.80
2022-08-03T08:33:22.747Z,2.80
2022-08-03T08:35:53.218Z,2.28
2022-08-03T08:38:20.595Z,2.50
2022-08-03T08:40:57.377Z,2.30
2022-08-03T08:43:38.608Z,2.70
2022-08-03T08:46:25.538Z,2.40
2022-08-03T08:48:58.097Z,2.67
2022-08-03T08:51:50.510Z,2.75
2022-08-03T08:54:33.230Z,2.60
2022-08-03T08:59:59.160Z,1.92
2022-08-03T09:02:38.967Z,2.70
2022-08-03T09:05:22.519Z,2.58
2022-08-03T09:08:13.837Z,2.53
2022-08-03T09:10:49.143Z,2.45
2022-08-03T09:13:19.683Z,2.95
2022-08-03T09:16:12.032Z,2.47
2022-08-03T09:19:22.363Z,2.95
2022-08-03T09:22:23.120Z,2.40
2022-08-03T09:25:27.771Z,2.45
2022-08-03T09:27:55.497Z,2.55
2022-08-03T09:30:33.901Z,2.80
2022-08-03T09:33:05.733Z,3.13
2022-08-03T09:35:53.170Z,2.63
2022-08-03T09:38:28.132Z,2.50
2022-08-03T09:41:01.416Z,2.53
2022-08-03T09:43:58.859Z,2.85
2022-08-03T09:46:36.884Z,2.30
2022-08-03T09:49:14.469Z,2.53
2022-08-03T09:52:37.891Z,2.65
2022-08-03T09:55:03.272Z,2.70
2022-08-03T09:57:36.304Z,2.58
2022-08-03T10:00:16.453Z,2.30
2022-08-03T10:02:46.866Z,2.20
2022-08-03T10:05:17.592Z,2.10
2022-08-03T10:08:15.134Z,2.33
2022-08-03T10:10:48.758Z,2.78
2022-08-03T10:13:20.181Z,2.67
2022-08-03T10:16:21.600Z,2.45
2022-08-03T10:18:57.931Z,2.67
2022-08-03T10:24:29.912Z,2.53
2022-08-03T10:27:21.077Z,2.35
2022-08-03T10:30:01.939Z,2.30
2022-08-03T10:32:38.724Z,2.85
2022-08-03T10:35:28.404Z,2.38
2022-08-03T10:38:01.140Z,2.80
2022-08-03T10:40:51.128Z,2.35
2022-08-03T10:43:56.527Z,2.33
2022-08-03T10:46:24.665Z,2.47
2022-08-03T10:48:54.071Z,2.40
2022-08-03T10:51:35.212Z,2.08
2022-08-03T10:54:13.065Z,2.58
2022-08-03T10:57:14.458Z,2.20
2022-08-03T10:59:49.147Z,2.17
2022-08-03T11:02:50.354Z,2.28
2022-08-03T11:05:32.315Z,2.30
2022-08-03T11:08:39.872Z,2.45
2022-08-03T11:11:31.694Z,2.40
2022-08-03T11:14:24.918Z,1.90
2022-08-03T11:17:14.416Z,2.60
2022-08-03T11:20:02.016Z,2.53
2022-08-03T11:23:03.433Z,2.53
2022-08-03T11:26:27.655Z,2.63
2022-08-03T11:29:33.279Z,1.95
2022-08-03T11:32:00.325Z,2.97
2022-08-03T11:34:31.296Z,2.33
2022-08-03T11:37:32.877Z,2.45
2022-08-03T11:40:04.125Z,2.78
2022-08-03T11:42:42.806Z,2.58
2022-08-03T11:45:10.286Z,2.30
2022-08-03T11:47:50.288Z,2.20
2022-08-03T11:53:24.279Z,2.55
2022-08-03T11:55:56.096Z,2.00
2022-08-03T11:59:11.043Z,1.85
2022-08-03T12:01:29.031Z,2.53
2022-08-03T12:04:05.392Z,2.40
2022-08-03T12:06:55.106Z,2.63
2022-08-03T12:09:36.016Z,2.05
2022-08-03T12:12:05.837Z,2.15
2022-08-03T12:14:52.076Z,2.30
2022-08-03T12:50:35.955Z,2.67
2022-08-03T12:53:09.061Z,3.03
2022-08-03T12:58:36.648Z,3.45
2022-08-03T13:01:09.929Z,2.28
2022-08-03T13:03:49.931Z,2.60
2022-08-03T13:06:26.795Z,2.85
2022-08-03T13:09:07.137Z,3.80
2022-08-03T13:11:55.479Z,3.83
2022-08-03T13:14:23.657Z,3.33
2022-08-03T13:16:50.897Z,2.95
2022-08-03T13:19:17.817Z,3.67
2022-08-03T13:21:53.665Z,3.35
2022-08-03T13:24:33.559Z,2.80
2022-08-03T13:27:23.319Z,2.53
2022-08-03T13:29:53.438Z,3.15
2022-08-03T13:32:22.045Z,3.05
2022-08-03T13:34:49.402Z,3.00
2022-08-03T13:37:27.374Z,3.53
2022-08-03T13:39:59.113Z,3.17
2022-08-03T13:42:35.764Z,3.40
2022-08-03T13:45:04.574Z,2.78
2022-08-03T13:47:37.766Z,3.25
2022-08-03T13:50:05.680Z,3.17
2022-08-03T13:52:35.735Z,2.85
2022-08-03T13:55:06.720Z,3.13
2022-08-03T13:58:05.917Z,3.75
2022-08-03T14:00:27.480Z,3.10
2022-08-03T14:05:44.380Z,3.03
2022-08-03T14:08:12.285Z,3.03
2022-08-03T14:10:45.314Z,2.63
2022-08-03T14:13:18.396Z,2.47
2022-08-03T14:15:49.716Z,2.92
2022-08-03T14:18:29.323Z,2.50
2022-08-03T14:21:06.442Z,2.65
2022-08-03T14:23:40.192Z,2.97
2022-08-03T14:26:10.078Z,2.88
2022-08-03T14:28:36.885Z,2.75
2022-08-03T14:31:08.312Z,2.67
2022-08-03T14:33:51.804Z,3.08
2022-08-03T14:36:21.101Z,2.75
2022-08-03T14:39:00.794Z,2.55
2022-08-03T14:41:28.052Z,2.47
2022-08-03T14:44:01.189Z,2.28
2022-08-03T14:46:29.855Z,2.83
2022-08-03T14:50:33.887Z,2.60
2022-08-03T14:51:51.514Z,3.38
2022-08-03T14:54:21.475Z,2.58
2022-08-03T14:56:49.139Z,2.45
2022-08-03T14:59:16.344Z,2.42
2022-08-03T15:02:02.904Z,3.08
2022-08-03T15:04:29.828Z,2.47
2022-08-03T15:06:56.673Z,2.45
2022-08-03T15:09:24.299Z,2.50
2022-08-03T15:11:51.180Z,2.78
2022-08-03T15:14:19.516Z,2.33
2022-08-03T15:16:55.132Z,2.53
2022-08-03T15:20:00.819Z,3.30
2022-08-03T15:22:11.652Z,3.03
2022-08-03T15:24:43.958Z,2.35
2022-08-03T15:27:10.869Z,2.85
2022-08-03T15:30:05.012Z,2.72
2022-08-03T15:32:24.621Z,3.13
2022-08-03T15:34:53.232Z,3.17
2022-08-03T15:37:25.860Z,2.95
2022-08-03T15:40:00.277Z,2.03
2022-08-03T15:42:36.294Z,3.17
2022-08-03T15:45:03.922Z,2.85
2022-08-03T15:47:30.761Z,3.30
2022-08-03T15:49:57.609Z,2.90
2022-08-03T15:52:24.693Z,3.45
2022-08-03T15:54:54.444Z,3.00
2022-08-03T15:57:21.550Z,3.20
2022-08-03T15:59:51.902Z,2.88
2022-08-03T16:02:32.833Z,3.08
2022-08-03T16:04:59.748Z,3.25
2022-08-03T16:08:02.825Z,3.50
2022-08-03T16:10:32.180Z,3.00
2022-08-03T16:13:00.321Z,3.10
2022-08-03T16:15:38.934Z,3.67
2022-08-03T16:18:09.238Z,3.38
2022-08-03T16:20:36.403Z,3.70
2022-08-03T16:23:11.257Z,2.70
2022-08-03T16:25:52.993Z,3.30
2022-08-03T16:28:37.912Z,3.17
2022-08-03T16:31:06.129Z,3.33
2022-08-03T16:33:36.223Z,3.42
2022-08-03T16:36:03.693Z,3.80
2022-08-03T16:38:31.296Z,3.30
2022-08-03T16:40:58.353Z,3.13
2022-08-03T16:43:35.972Z,3.08
2022-08-03T16:46:02.719Z,3.13
2022-08-03T16:48:32.207Z,3.67
2022-08-03T16:50:58.956Z,3.15
2022-08-03T16:53:51.576Z,3.58
2022-08-03T16:56:12.610Z,2.70
2022-08-03T16:58:44.468Z,2.90
2022-08-03T17:01:22.204Z,3.33
2022-08-03T17:04:04.500Z,3.30
2022-08-03T17:06:44.689Z,3.22
2022-08-03T17:09:24.234Z,3.33
2022-08-03T17:11:54.058Z,2.40
2022-08-03T17:14:28.229Z,2.88
2022-08-03T17:17:01.595Z,2.63
2022-08-03T17:19:36.296Z,3.15
2022-08-03T17:22:23.082Z,2.90
2022-08-03T17:24:57.430Z,3.00
2022-08-03T17:28:50.813Z,3.42
2022-08-03T17:30:25.212Z,3.95
2022-08-03T17:32:57.391Z,5.10
2022-08-03T17:35:34.182Z,3.55
2022-08-03T17:38:07.686Z,5.07
2022-08-03T17:40:38.082Z,4.80
2022-08-03T17:44:12.761Z,3.55
2022-08-03T17:45:54.705Z,3.65
2022-08-03T17:48:25.428Z,6.88
2022-08-03T17:51:02.973Z,4.05
2022-08-03T17:53:43.235Z,5.82
2022-08-03T17:57:26.505Z,5.15
2022-08-03T18:00:30.557Z,5.28
2022-08-03T18:03:57.037Z,3.63
2022-08-03T18:06:31.399Z,6.65
2022-08-03T18:10:04.851Z,5.73
2022-08-03T18:12:03.062Z,6.63
2022-08-03T18:14:57.363Z,5.55
2022-08-03T18:17:55.787Z,6.15
2022-08-03T18:20:48.613Z,6.38
2022-08-03T18:23:36.863Z,5.28
2022-08-03T18:26:12.298Z,5.68
2022-08-03T18:28:40.817Z,6.57
2022-08-03T18:34:17.950Z,6.43
2022-08-03T18:36:49.190Z,7.68
2022-08-03T18:39:49.569Z,7.03
2022-08-03T18:42:32.418Z,7.82
2022-08-03T18:45:00.074Z,7.32
2022-08-03T18:48:05.113Z,7.15
2022-08-03T18:50:51.805Z,6.07
2022-08-03T18:54:51.713Z,6.55
2022-08-03T18:57:46.443Z,5.72
2022-08-03T19:03:20.711Z,6.43
2022-08-03T19:06:13.399Z,6.43
2022-08-03T19:08:59.892Z,4.40
2022-08-03T19:12:13.302Z,5.55
2022-08-03T19:14:53.528Z,5.35
2022-08-03T19:17:38.373Z,6.28
2022-08-03T19:20:09.387Z,5.00
2022-08-03T19:22:39.646Z,5.13
2022-08-03T19:25:12.773Z,4.43
2022-08-03T19:27:40.568Z,5.03
2022-08-03T19:30:21.838Z,4.93
2022-08-03T19:32:57.865Z,5.47
2022-08-03T19:35:51.105Z,5.55
2022-08-03T19:38:12.397Z,5.05
2022-08-03T19:40:51.006Z,5.50
2022-08-03T19:43:53.493Z,5.72
2022-08-03T19:46:30.137Z,6.05
2022-08-03T19:49:10.729Z,6.55
2022-08-03T19:52:02.040Z,6.20
2022-08-03T19:54:53.997Z,6.45
2022-08-03T19:57:44.018Z,7.40
2022-08-03T20:00:14.224Z,6.50
2022-08-03T20:02:42.134Z,7.57
2022-08-03T20:05:12.014Z,7.53
2022-08-03T20:07:47.659Z,6.88
2022-08-03T20:10:17.829Z,6.70
2022-08-03T20:12:48.387Z,7.32
2022-08-03T20:15:22.213Z,7.15
2022-08-03T20:17:58.795Z,6.63
2022-08-03T20:20:37.382Z,7.60
2022-08-03T20:23:13.005Z,7.50
2022-08-03T20:25:57.392Z,7.47
2022-08-03T20:28:50.148Z,8.07
2022-08-03T20:31:32.202Z,7.18
2022-08-03T20:34:07.617Z,8.40
2022-08-03T20:36:35.930Z,7.78
2022-08-03T20:39:07.765Z,9.18
2022-08-03T20:41:36.354Z,9.57
2022-08-03T20:44:04.453Z,8.73
2022-08-03T20:46:41.727Z,9.00
2022-08-03T20:49:24.591Z,8.50
2022-08-03T20:51:53.806Z,9.60
2022-08-03T20:54:29.389Z,9.38
2022-08-03T20:57:03.933Z,8.90
2022-08-03T20:59:47.145Z,9.30
2022-08-03T21:02:29.835Z,8.82
2022-08-03T21:05:03.371Z,10.77
2022-08-03T21:08:04.096Z,9.95
2022-08-03T21:10:34.108Z,9.57
2022-08-03T21:16:07.128Z,8.48
2022-08-03T21:18:52.597Z,9.82
2022-08-03T21:21:23.686Z,9.20
2022-08-03T21:23:55.034Z,9.18
2022-08-03T21:26:27.147Z,8.88
2022-08-03T21:28:56.821Z,9.50
2022-08-03T21:31:27.127Z,8.25
2022-08-03T21:34:04.471Z,9.93
2022-08-03T21:36:37.372Z,8.98
2022-08-03T21:39:08.793Z,9.38
2022-08-03T21:41:38.610Z,9.07
2022-08-03T21:44:07.283Z,8.75
2022-08-03T21:46:42.246Z,9.60
2022-08-03T21:50:05.660Z,8.63
2022-08-03T21:52:06.671Z,8.82
2022-08-03T21:54:41.940Z,9.00
2022-08-03T21:57:25.498Z,9.00
2022-08-03T21:59:56.016Z,7.97
2022-08-03T22:02:32.794Z,7.70
2022-08-03T22:04:59.976Z,9.50
2022-08-03T22:07:29.385Z,8.40
2022-08-03T22:10:00.184Z,8.75
2022-08-03T22:12:31.176Z,9.63
2022-08-03T22:15:02.327Z,9.43
2022-08-03T22:17:55.681Z,9.63
2022-08-03T22:20:25.234Z,10.30
2022-08-03T22:22:59.809Z,10.07
2022-08-03T22:25:33.129Z,10.45
2022-08-03T22:28:09.851Z,11.07
2022-08-03T22:30:40.313Z,10.57
2022-08-03T22:33:12.066Z,11.93
2022-08-03T22:35:55.935Z,11.57
2022-08-03T22:38:27.512Z,10.88
2022-08-03T22:40:57.411Z,11.32
2022-08-03T22:43:27.098Z,11.73
2022-08-03T22:46:10.447Z,9.93
2022-08-03T22:48:40.786Z,11.27
2022-08-03T22:51:08.793Z,10.88
2022-08-03T22:53:36.667Z,11.48
2022-08-03T22:56:04.580Z,11.68
2022-08-03T22:58:31.446Z,11.02
2022-08-03T23:01:08.855Z,11.10
2022-08-03T23:04:00.863Z,11.75
2022-08-03T23:06:42.627Z,11.18
2022-08-03T23:09:14.014Z,11.88
2022-08-03T23:11:45.999Z,11.35
2022-08-03T23:14:22.199Z,12.60
2022-08-03T23:16:57.045Z,12.45
2022-08-03T23:19:27.594Z,13.10
2022-08-03T23:22:03.442Z,13.73
2022-08-03T23:24:38.686Z,12.52
2022-08-03T23:27:09.140Z,11.50
2022-08-03T23:29:42.181Z,14.85
2022-08-03T23:32:12.864Z,17.87
2022-08-03T23:34:58.936Z,17.45
2022-08-03T23:37:26.942Z,19.40
2022-08-03T23:39:58.258Z,17.33
2022-08-03T23:42:27.356Z,18.13
2022-08-03T23:44:59.420Z,16.40
2022-08-03T23:47:46.757Z,15.63
2022-08-03T23:50:15.260Z,15.32
2022-08-03T23:53:11.745Z,16.70
2022-08-03T23:56:22.049Z,16.73
2022-08-03T23:59:16.154Z,17.13
